Time;durP1;ratioP1;P1;durP2;ratioP2;P2;SDS_P1;SDS_P2;PMS_P1;PMS_P2;Temp;Humidity;BMP_temperature;BMP_pressure;BME280_temperature;BME280_humidity;BME280_pressure;Samples;Min_cycle;Max_cycle;Signal;HPM_P1;HPM_P2
2023/08/09 00:00:33;;;;;;;;;;;;;;;26.27;51.54;101524.47;5072734;28;19920;-83
2023/08/09 00:03:02;;;;;;;;;;;;;;;26.26;51.75;101519.97;5104179;28;19951;-83
2023/08/09 00:05:27;;;;;;;;;;;;;;;26.23;51.70;101508.41;5094182;28;20087;-83
2023/08/09 00:07:53;;;;;;;;;;;;;;;26.24;51.88;101512.84;5094963;28;19924;-84
2023/08/09 00:10:18;;;;;;;;;;;;;;;26.24;51.81;101513.72;5108793;28;19924;-84
2023/08/09 00:12:44;;;;;;;;;;;;;;;26.24;52.04;101518.19;5111003;28;20395;-84
2023/08/09 00:15:09;;;;;;;;;;;;;;;26.22;51.67;101511.94;5094225;28;19923;-83
2023/08/09 00:17:35;;;;;;;;;;;;;;;26.19;51.88;101516.41;5077838;28;19936;-83
2023/08/09 00:20:00;;;;;;;;;;;;;;;26.19;51.71;101515.53;5104053;28;20006;-83
2023/08/09 00:22:26;;;;;;;;;;;;;;;26.20;51.67;101525.31;5096228;28;19916;-84
2023/08/09 00:24:52;;;;;;;;;;;;;;;26.16;51.65;101521.78;5091946;28;19916;-84
2023/08/09 00:27:17;;;;;;;;;;;;;;;26.16;51.74;101513.75;5091100;28;19984;-82
2023/08/09 00:29:42;;;;;;;;;;;;;;;26.18;51.43;101514.63;5102611;28;19912;-83
2023/08/09 00:32:08;;;;;;;;;;;;;;;26.17;51.79;101514.63;5108266;28;19947;-82
2023/08/09 00:34:33;;;;;;;;;;;;;;;26.16;51.81;101508.38;5091450;28;19920;-83
2023/08/09 00:36:59;;;;;;;;;;;;;;;26.14;51.96;101504.81;5110197;28;20321;-83
2023/08/09 00:39:25;;;;;;;;;;;;;;;26.11;51.84;101504.78;5104607;28;19919;-84
2023/08/09 00:41:50;;;;;;;;;;;;;;;26.13;51.93;101512.81;5110684;28;19947;-83
2023/08/09 00:44:16;;;;;;;;;;;;;;;26.14;51.82;101514.59;5093029;28;19912;-82
2023/08/09 00:46:42;;;;;;;;;;;;;;;26.14;51.66;101519.94;5091855;28;19916;-83
2023/08/09 00:49:07;;;;;;;;;;;;;;;26.11;51.64;101518.16;5075955;28;19923;-84
2023/08/09 00:51:33;;;;;;;;;;;;;;;26.06;51.97;101519.97;5094937;28;19924;-83
2023/08/09 00:53:58;;;;;;;;;;;;;;;26.07;52.02;101510.13;5105830;28;19923;-83
2023/08/09 00:56:24;;;;;;;;;;;;;;;25.98;52.49;101503.88;5076374;28;19943;-83
2023/08/09 00:58:49;;;;;;;;;;;;;;;25.93;52.39;101499.38;5110815;28;20389;-83
2023/08/09 01:01:14;;;;;;;;;;;;;;;25.95;52.13;101500.28;5106179;27;20010;-84
2023/08/09 01:03:40;;;;;;;;;;;;;;;25.98;52.14;101503.00;5075539;27;19920;-84
2023/08/09 01:06:24;;;;;;;;;;;;;;;25.97;51.87;101504.78;5113463;28;19963;-84
2023/08/09 01:08:58;;;;;;;;;;;;;;;26.02;51.74;101502.09;5101819;27;20377;-83
2023/08/09 01:11:38;;;;;;;;;;;;;;;26.03;51.88;101503.00;5100148;28;19921;-84
2023/08/09 01:14:04;;;;;;;;;;;;;;;25.92;52.27;101501.19;5094731;28;19916;-84
2023/08/09 01:16:30;;;;;;;;;;;;;;;25.98;52.20;101501.19;5100538;28;19931;-83
2023/08/09 01:18:55;;;;;;;;;;;;;;;25.98;52.16;101503.88;5093814;28;19915;-83
2023/08/09 01:21:21;;;;;;;;;;;;;;;25.99;51.99;101503.00;5111325;28;19915;-83
2023/08/09 01:23:46;;;;;;;;;;;;;;;26.01;51.96;101500.31;5110749;28;19916;-84
2023/08/09 01:26:12;;;;;;;;;;;;;;;25.99;52.07;101508.34;5095076;28;19922;-83
2023/08/09 01:28:40;;;;;;;;;;;;;;;25.94;51.85;101501.19;5096866;28;20018;-83
2023/08/09 01:31:05;;;;;;;;;;;;;;;25.98;51.87;101508.34;5093824;28;20023;-83
2023/08/09 01:33:30;;;;;;;;;;;;;;;25.95;52.05;101506.56;5109472;27;20011;-83
2023/08/09 01:35:59;;;;;;;;;;;;;;;25.96;52.04;101508.34;5109632;28;20292;-84
2023/08/09 01:38:26;;;;;;;;;;;;;;;25.97;52.01;101519.91;5109686;28;19973;-82
2023/08/09 01:40:51;;;;;;;;;;;;;;;25.96;51.90;101511.00;5103002;28;20037;-84
2023/08/09 01:43:17;;;;;;;;;;;;;;;25.95;51.65;101506.56;5107764;28;20457;-84
2023/08/09 01:45:42;;;;;;;;;;;;;;;25.94;51.86;101504.75;5093356;28;19927;-84
2023/08/09 01:48:08;;;;;;;;;;;;;;;25.93;51.87;101502.97;5112397;28;20041;-84
2023/08/09 01:50:34;;;;;;;;;;;;;;;25.93;51.84;101516.38;5110563;28;20407;-85
2023/08/09 01:53:00;;;;;;;;;;;;;;;25.84;51.44;101488.63;5094518;28;19973;-84
2023/08/09 01:55:25;;;;;;;;;;;;;;;25.93;51.79;101518.13;5118316;27;19958;-83
2023/08/09 01:57:51;;;;;;;;;;;;;;;25.92;51.89;101519.91;5106940;28;19951;-83
2023/08/09 02:00:19;;;;;;;;;;;;;;;25.89;51.94;101516.38;5110367;28;19915;-84
2023/08/09 02:02:47;;;;;;;;;;;;;;;25.89;51.46;101525.28;5092446;28;19920;-83
2023/08/09 02:05:13;;;;;;;;;;;;;;;25.88;51.82;101530.59;5092802;28;19916;-85
2023/08/09 02:07:39;;;;;;;;;;;;;;;25.89;51.91;101541.34;5107675;28;19927;-83
2023/08/09 02:10:05;;;;;;;;;;;;;;;25.90;51.65;101534.19;5095370;28;20016;-84
2023/08/09 02:12:31;;;;;;;;;;;;;;;25.88;51.58;101539.50;5092381;28;19920;-85
2023/08/09 02:14:56;;;;;;;;;;;;;;;25.87;51.82;101532.38;5100048;28;20360;-85
2023/08/09 02:17:22;;;;;;;;;;;;;;;25.86;51.48;101533.25;5093557;28;19955;-85
2023/08/09 02:19:47;;;;;;;;;;;;;;;25.86;51.50;101537.72;5098049;28;19920;-84
2023/08/09 02:22:15;;;;;;;;;;;;;;;25.85;51.90;101535.94;5091414;28;19916;-84
2023/08/09 02:24:40;;;;;;;;;;;;;;;25.87;51.52;101542.19;5109127;28;19950;-84
2023/08/09 02:27:06;;;;;;;;;;;;;;;25.84;51.54;101532.34;5089449;28;19916;-83
2023/08/09 02:29:31;;;;;;;;;;;;;;;25.87;51.36;101539.50;5102347;28;20270;-83
2023/08/09 02:31:58;;;;;;;;;;;;;;;25.83;51.68;101538.59;5109787;28;20630;-82
2023/08/09 02:34:23;;;;;;;;;;;;;;;25.86;51.54;101537.72;5107069;27;19996;-83
2023/08/09 02:36:49;;;;;;;;;;;;;;;25.83;51.31;101535.03;5100554;28;19916;-84
2023/08/09 02:39:15;;;;;;;;;;;;;;;25.81;51.88;101537.69;5077482;28;20361;-84
2023/08/09 02:41:42;;;;;;;;;;;;;;;25.82;51.66;101536.78;5091526;28;20336;-83
2023/08/09 02:44:08;;;;;;;;;;;;;;;25.83;51.66;101535.03;5108826;28;19923;-85
2023/08/09 02:46:33;;;;;;;;;;;;;;;25.82;51.63;101533.22;5107883;28;19916;-84
2023/08/09 02:48:59;;;;;;;;;;;;;;;25.79;51.72;101537.69;5101415;28;19958;-83
2023/08/09 02:51:24;;;;;;;;;;;;;;;25.78;51.93;101543.94;5095502;28;20348;-83
2023/08/09 02:53:57;;;;;;;;;;;;;;;25.65;52.37;101543.88;5102563;27;19912;-83
2023/08/09 02:56:24;;;;;;;;;;;;;;;25.64;53.00;101547.44;5091082;28;20209;-83
2023/08/09 02:58:50;;;;;;;;;;;;;;;25.62;52.43;101542.09;5113209;27;19912;-84
2023/08/09 03:01:16;;;;;;;;;;;;;;;25.58;52.71;101542.97;5090311;28;20401;-83
2023/08/09 03:03:41;;;;;;;;;;;;;;;25.66;52.60;101541.22;5074889;28;20660;-83
2023/08/09 03:06:07;;;;;;;;;;;;;;;25.63;52.56;101554.56;5101559;28;19912;-84
2023/08/09 03:08:33;;;;;;;;;;;;;;;25.68;52.06;101555.50;5119425;27;20372;-85
2023/08/09 03:10:58;;;;;;;;;;;;;;;25.65;52.02;101563.47;5120426;27;19920;-84
2023/08/09 03:13:24;;;;;;;;;;;;;;;25.70;51.84;101561.75;5129025;28;19922;-84
2023/08/09 03:15:49;;;;;;;;;;;;;;;25.71;52.15;101567.97;5132239;28;19923;-85
2023/08/09 03:18:15;;;;;;;;;;;;;;;25.66;52.04;101570.63;5123953;28;20021;-83
2023/08/09 03:20:41;;;;;;;;;;;;;;;25.68;52.10;101576.00;5128245;28;20376;-85
2023/08/09 03:23:09;;;;;;;;;;;;;;;25.67;51.98;101580.44;5107557;28;19919;-85
2023/08/09 03:25:35;;;;;;;;;;;;;;;25.68;51.84;101584.03;5123518;28;20297;-85
2023/08/09 03:28:00;;;;;;;;;;;;;;;25.71;51.69;101584.03;5112914;28;20388;-84
2023/08/09 03:30:29;;;;;;;;;;;;;;;25.66;51.46;101584.00;5111885;28;19915;-85
2023/08/09 03:33:00;;;;;;;;;;;;;;;25.67;51.82;101579.56;5112807;28;19922;-85
2023/08/09 03:35:25;;;;;;;;;;;;;;;25.67;51.82;101584.91;5071953;28;19926;-84
2023/08/09 03:38:05;;;;;;;;;;;;;;;;;;;;;
2023/08/09 03:41:02;;;;;;;;;;;;;;;25.63;51.72;101577.75;5109803;27;20284;-84
2023/08/09 03:43:28;;;;;;;;;;;;;;;25.63;52.14;101581.31;5111871;27;19963;-85
2023/08/09 03:45:57;;;;;;;;;;;;;;;25.54;52.49;101587.50;5109205;27;20354;-83
2023/08/09 03:48:22;;;;;;;;;;;;;;;25.53;52.38;101587.53;5119771;27;20002;-83
2023/08/09 03:50:47;;;;;;;;;;;;;;;25.55;52.23;101593.78;5131160;27;20010;-79
2023/08/09 03:53:13;;;;;;;;;;;;;;;25.54;52.21;101592.84;5114887;27;20626;-83
2023/08/09 03:55:38;;;;;;;;;;;;;;;25.52;52.51;101593.75;5126550;27;19945;-85
2023/08/09 03:58:04;;;;;;;;;;;;;;;25.45;52.51;101590.16;5106815;27;20398;-84
2023/08/09 04:00:29;;;;;;;;;;;;;;;25.42;53.04;101597.25;5129389;27;19971;-87
2023/08/09 04:02:56;;;;;;;;;;;;;;;25.40;52.76;101597.25;5121530;27;19919;-84
2023/08/09 04:05:21;;;;;;;;;;;;;;;25.36;52.79;101596.34;5105457;28;19961;-88
2023/08/09 04:07:46;;;;;;;;;;;;;;;25.31;52.99;101599.84;5092143;27;19966;-86
2023/08/09 04:10:12;;;;;;;;;;;;;;;25.38;52.57;101604.38;5113298;28;20064;-87
2023/08/09 04:12:38;;;;;;;;;;;;;;;25.33;53.25;101604.31;5119213;27;20390;-88
2023/08/09 04:15:04;;;;;;;;;;;;;;;25.34;53.05;101610.59;5112391;27;19919;-87
2023/08/09 04:17:32;;;;;;;;;;;;;;;25.31;52.98;101615.91;5111442;27;20429;-87
2023/08/09 04:19:58;;;;;;;;;;;;;;;25.30;53.18;101611.44;5104848;27;20352;-88
2023/08/09 04:22:24;;;;;;;;;;;;;;;25.31;52.68;101616.78;5095629;27;20415;-87
2023/08/09 04:24:50;;;;;;;;;;;;;;;25.34;52.66;101613.25;5119005;27;19950;-86
2023/08/09 04:27:15;;;;;;;;;;;;;;;25.29;52.90;101618.56;5119940;27;20445;-87
2023/08/09 04:29:41;;;;;;;;;;;;;;;25.29;52.72;101617.66;5111370;27;19919;-87
2023/08/09 04:32:07;;;;;;;;;;;;;;;25.28;52.92;101627.47;5111777;27;19954;-86
2023/08/09 04:34:32;;;;;;;;;;;;;;;25.24;53.00;101616.75;5091658;27;19958;-87
2023/08/09 04:36:58;;;;;;;;;;;;;;;25.19;53.05;101620.25;5088864;27;19919;-87
2023/08/09 04:39:23;;;;;;;;;;;;;;;25.18;53.14;101618.44;5095720;27;20594;-85
2023/08/09 04:41:49;;;;;;;;;;;;;;;25.10;52.83;101612.16;5126567;27;19919;-87
2023/08/09 04:44:15;;;;;;;;;;;;;;;25.22;52.76;101619.41;5100990;27;19915;-88
2023/08/09 04:46:41;;;;;;;;;;;;;;;25.23;52.75;101617.63;5121081;27;20344;-84
2023/08/09 04:49:06;;;;;;;;;;;;;;;25.33;52.31;101620.38;5130868;27;19922;-87
2023/08/09 04:51:32;;;;;;;;;;;;;;;25.36;52.18;101617.72;5109712;27;19918;-86
2023/08/09 04:53:57;;;;;;;;;;;;;;;25.22;52.91;101618.53;5107510;27;19987;-87
2023/08/09 04:56:23;;;;;;;;;;;;;;;25.23;53.08;101621.22;5097921;27;19915;-87
2023/08/09 04:58:48;;;;;;;;;;;;;;;25.33;52.69;101624.81;5090563;28;19924;-85
2023/08/09 05:01:14;;;;;;;;;;;;;;;25.33;52.37;101620.38;5104754;27;20387;-86
2023/08/09 05:03:39;;;;;;;;;;;;;;;25.37;52.35;101622.16;5119344;27;20340;-87
2023/08/09 05:06:17;;;;;;;;;;;;;;;25.31;52.72;101619.47;5129723;27;19915;-87
2023/08/09 05:08:44;;;;;;;;;;;;;;;25.30;52.62;101620.34;5108196;27;19920;-87
2023/08/09 05:11:09;;;;;;;;;;;;;;;25.34;52.47;101615.94;5116003;27;19915;-85
2023/08/09 05:13:35;;;;;;;;;;;;;;;25.34;52.22;101608.81;5121150;27;19919;-85
2023/08/09 05:16:00;;;;;;;;;;;;;;;25.36;52.25;101615.06;5131832;27;20372;-87
2023/08/09 05:18:26;;;;;;;;;;;;;;;25.19;51.14;101617.56;5108513;28;20292;-86
2023/08/09 05:20:58;;;;;;;;;;;;;;;25.07;51.01;101619.25;5119465;27;19916;-93
2023/08/09 05:23:26;;;;;;;;;;;;;;;25.02;50.74;101624.59;5113545;27;20373;-91
2023/08/09 05:25:51;;;;;;;;;;;;;;;25.04;51.87;101624.56;5133339;27;20010;-87
2023/08/09 05:28:17;;;;;;;;;;;;;;;25.06;51.87;101626.41;5123180;27;20414;-89
2023/08/09 05:30:42;;;;;;;;;;;;;;;25.15;51.70;101623.78;5111665;27;20405;-88
2023/08/09 05:33:08;;;;;;;;;;;;;;;25.21;51.68;101620.31;5123721;27;19923;-87
2023/08/09 05:35:33;;;;;;;;;;;;;;;25.26;51.79;101628.34;5125826;27;19919;-87
2023/08/09 05:37:58;;;;;;;;;;;;;;;25.14;52.41;101621.09;5099161;27;20183;-88
2023/08/09 05:40:24;;;;;;;;;;;;;;;25.18;52.20;101626.47;5109933;28;19919;-86
2023/08/09 05:42:49;;;;;;;;;;;;;;;25.16;52.16;101632.69;5118785;27;20274;-90
2023/08/09 05:45:27;;;;;;;;;;;;;;;25.23;52.14;101629.22;5102697;27;20411;-90
2023/08/09 05:47:53;;;;;;;;;;;;;;;25.20;52.32;101629.19;5124999;27;19915;-87
2023/08/09 05:50:18;;;;;;;;;;;;;;;25.21;52.22;101632.75;5099954;28;19999;-90
2023/08/09 05:52:43;;;;;;;;;;;;;;;25.25;52.28;101632.81;5099150;27;19923;-89
2023/08/09 05:55:09;;;;;;;;;;;;;;;25.26;52.30;101631.03;5098093;27;19916;-88
2023/08/09 05:57:36;;;;;;;;;;;;;;;25.27;52.31;101635.47;5113838;27;19972;-88
2023/08/09 06:00:23;;;;;;;;;;;;;;;25.25;52.24;101642.59;5106155;27;19954;-87
2023/08/09 06:02:49;;;;;;;;;;;;;;;25.24;52.42;101631.00;5099650;27;19924;-89
2023/08/09 06:05:42;;;;;;;;;;;;;;;25.27;52.45;101641.72;5103282;27;19916;-87
2023/08/09 06:08:07;;;;;;;;;;;;;;;25.15;53.07;101636.25;5113593;27;19919;-86
2023/08/09 06:10:33;;;;;;;;;;;;;;;25.15;52.95;101647.84;5114837;27;20360;-87
2023/08/09 06:12:58;;;;;;;;;;;;;;;25.16;52.84;101644.28;5137194;27;19923;-87
2023/08/09 06:15:24;;;;;;;;;;;;;;;25.23;52.70;101647.94;5101506;27;19915;-88
2023/08/09 06:17:52;;;;;;;;;;;;;;;25.19;53.03;101644.31;5122128;27;20341;-89
2023/08/09 06:20:21;;;;;;;;;;;;;;;25.10;52.96;101649.56;5092335;27;20981;-87
2023/08/09 06:22:47;;;;;;;;;;;;;;;25.16;53.10;101646.06;5098984;28;19958;-87
2023/08/09 06:25:13;;;;;;;;;;;;;;;25.14;53.18;101651.38;5108659;27;19958;-87
2023/08/09 06:27:39;;;;;;;;;;;;;;;25.07;52.79;101627.28;5103356;27;19946;-89
2023/08/09 06:30:04;;;;;;;;;;;;;;;25.07;53.27;101654.00;5111294;27;20362;-88
2023/08/09 06:32:51;;;;;;;;;;;;;;;25.14;53.09;101651.38;5127934;27;19980;-86
2023/08/09 06:35:17;;;;;;;;;;;;;;;25.10;53.29;101646.88;5111078;27;19915;-88
2023/08/09 06:37:42;;;;;;;;;;;;;;;25.14;53.24;101651.38;5103624;27;19915;-88
2023/08/09 06:40:08;;;;;;;;;;;;;;;25.12;53.44;101650.47;5119808;27;20003;-87
2023/08/09 06:42:35;;;;;;;;;;;;;;;25.05;53.50;101658.44;5110692;27;19916;-89
2023/08/09 06:45:01;;;;;;;;;;;;;;;25.09;53.35;101650.47;5101063;27;19915;-89
2023/08/09 06:47:26;;;;;;;;;;;;;;;25.12;53.51;101652.25;5107497;27;19946;-87
2023/08/09 06:49:52;;;;;;;;;;;;;;;25.11;53.34;101651.38;5119898;27;20008;-89
2023/08/09 06:52:18;;;;;;;;;;;;;;;25.11;53.36;101637.13;5099944;27;19927;-89
2023/08/09 06:54:44;;;;;;;;;;;;;;;25.11;53.48;101642.47;5109889;27;19923;-88
2023/08/09 06:57:09;;;;;;;;;;;;;;;25.05;53.56;101640.63;5095904;27;19924;-88
2023/08/09 06:59:35;;;;;;;;;;;;;;;25.05;53.63;101642.41;5120004;27;20338;-86
2023/08/09 07:02:00;;;;;;;;;;;;;;;25.06;53.62;101637.09;5115128;27;19922;-88
2023/08/09 07:04:26;;;;;;;;;;;;;;;25.04;53.86;101644.19;5108558;27;20286;-87
2023/08/09 07:06:53;;;;;;;;;;;;;;;25.05;53.91;101639.75;5115120;27;19923;-87
2023/08/09 07:09:18;;;;;;;;;;;;;;;25.06;53.87;101636.16;5105885;28;20389;-87
2023/08/09 07:11:45;;;;;;;;;;;;;;;24.97;53.82;101640.53;5078597;28;19924;-87
2023/08/09 07:14:10;;;;;;;;;;;;;;;25.02;53.94;101637.94;5075704;28;20346;-85
2023/08/09 07:16:36;;;;;;;;;;;;;;;24.96;53.91;101644.13;5079861;28;19924;-89
2023/08/09 07:19:02;;;;;;;;;;;;;;;24.99;53.85;101630.78;5085819;28;20325;-90
2023/08/09 07:21:28;;;;;;;;;;;;;;;25.00;53.85;101631.69;5084568;28;19915;-88
2023/08/09 07:23:53;;;;;;;;;;;;;;;24.97;53.97;101621.84;5093260;28;19924;-88
2023/08/09 07:26:19;;;;;;;;;;;;;;;24.99;53.75;101632.56;5062914;28;19923;-90
2023/08/09 07:28:44;;;;;;;;;;;;;;;24.98;54.06;101633.44;5081910;28;19924;-88
2023/08/09 07:31:26;;;;;;;;;;;;;;;25.01;54.03;101633.47;5088870;28;19916;-89
2023/08/09 07:33:52;;;;;;;;;;;;;;;25.05;53.77;101635.28;5098333;28;19973;-89
2023/08/09 07:36:17;;;;;;;;;;;;;;;25.06;54.02;101638.84;5092847;28;20324;-89
2023/08/09 07:38:43;;;;;;;;;;;;;;;25.03;54.02;101625.47;5113033;28;20354;-89
2023/08/09 07:41:09;;;;;;;;;;;;;;;25.05;53.85;101629.06;5072272;28;19928;-89
2023/08/09 07:43:35;;;;;;;;;;;;;;;25.06;53.75;101636.16;5105270;28;19920;-88
2023/08/09 07:46:04;;;;;;;;;;;;;;;25.06;54.03;101625.47;5077143;28;19916;-88
2023/08/09 07:48:30;;;;;;;;;;;;;;;25.15;53.34;101625.56;5069311;28;19973;-85
2023/08/09 07:50:55;;;;;;;;;;;;;;;25.16;53.28;101622.88;5091253;28;19920;-87
2023/08/09 07:53:22;;;;;;;;;;;;;;;25.15;53.04;101623.78;5084542;28;19920;-88
2023/08/09 07:55:48;;;;;;;;;;;;;;;25.16;53.08;101624.66;5091576;28;19913;-84
2023/08/09 07:58:14;;;;;;;;;;;;;;;25.19;52.86;101614.91;5074226;28;19912;-87
2023/08/09 08:00:39;;;;;;;;;;;;;;;25.22;52.73;101619.41;5095667;28;19924;-84
2023/08/09 08:03:05;;;;;;;;;;;;;;;25.23;52.90;101620.28;5086761;28;19916;-85
2023/08/09 08:05:30;;;;;;;;;;;;;;;25.19;52.74;101616.69;5076697;28;20007;-87
2023/08/09 08:07:56;;;;;;;;;;;;;;;25.19;52.92;101622.03;5092722;28;20290;-86
2023/08/09 08:10:22;;;;;;;;;;;;;;;25.20;52.85;101615.81;5079239;28;19911;-89
2023/08/09 08:12:51;;;;;;;;;;;;;;;25.23;52.83;101617.63;5081639;28;19916;-89
2023/08/09 08:15:16;;;;;;;;;;;;;;;25.22;52.70;101615.84;5091619;28;19920;-86
2023/08/09 08:17:46;;;;;;;;;;;;;;;25.25;52.47;101611.44;5087237;28;19922;-86
2023/08/09 08:20:15;;;;;;;;;;;;;;;25.26;52.46;101613.19;5100301;28;20019;-86
2023/08/09 08:22:46;;;;;;;;;;;;;;;25.25;52.50;101608.75;5098316;28;21367;-86
2023/08/09 08:25:12;;;;;;;;;;;;;;;25.25;52.58;101605.16;5085658;28;19916;-87
2023/08/09 08:27:37;;;;;;;;;;;;;;;25.23;52.72;101610.53;5081280;28;19935;-87
2023/08/09 08:30:04;;;;;;;;;;;;;;;25.22;52.53;101608.72;5105831;28;19946;-86
2023/08/09 08:32:32;;;;;;;;;;;;;;;25.22;52.53;101603.38;5090224;28;19931;-86
2023/08/09 08:34:57;;;;;;;;;;;;;;;25.25;52.59;101600.72;5101874;28;19916;-85
2023/08/09 08:37:23;;;;;;;;;;;;;;;25.26;52.64;101598.94;5097868;28;19924;-87
2023/08/09 08:39:50;;;;;;;;;;;;;;;25.27;52.60;101598.94;5086577;28;19945;-85
2023/08/09 08:42:17;;;;;;;;;;;;;;;25.25;52.38;101594.47;5088640;27;20300;-86
2023/08/09 08:44:43;;;;;;;;;;;;;;;25.23;52.77;101590.88;5114298;27;20472;-87
2023/08/09 08:47:08;;;;;;;;;;;;;;;25.22;52.48;101589.13;5102558;27;19922;-86
2023/08/09 08:49:34;;;;;;;;;;;;;;;25.22;52.57;101581.97;5111658;28;19916;-86
2023/08/09 08:51:59;;;;;;;;;;;;;;;25.24;52.51;101584.66;5085217;28;20385;-86
2023/08/09 08:54:25;;;;;;;;;;;;;;;25.22;52.67;101581.97;5101050;28;20444;-86
2023/08/09 08:56:51;;;;;;;;;;;;;;;25.23;52.38;101578.44;5093895;28;20627;-86
2023/08/09 08:59:16;;;;;;;;;;;;;;;25.25;52.44;101579.34;5100712;28;19996;-86
2023/08/09 09:01:46;;;;;;;;;;;;;;;25.30;52.54;101572.22;5103415;28;19919;-86
2023/08/09 09:04:11;;;;;;;;;;;;;;;25.30;52.38;101571.34;5096958;28;19919;-86
2023/08/09 09:06:37;;;;;;;;;;;;;;;25.29;52.27;101573.09;5099875;28;20359;-86
2023/08/09 09:09:08;;;;;;;;;;;;;;;25.27;52.53;101568.63;5088126;27;19924;-85
2023/08/09 09:11:33;;;;;;;;;;;;;;;25.31;52.21;101567.78;5100073;27;19920;-85
2023/08/09 09:13:59;;;;;;;;;;;;;;;25.29;52.34;101561.50;5091835;28;19994;-84
2023/08/09 09:16:25;;;;;;;;;;;;;;;25.26;52.38;101559.72;5098486;28;19916;-85
2023/08/09 09:18:50;;;;;;;;;;;;;;;25.35;52.34;101556.22;5104817;28;20011;-86
2023/08/09 09:21:16;;;;;;;;;;;;;;;25.37;52.04;101562.47;5113478;27;20452;-86
2023/08/09 09:23:42;;;;;;;;;;;;;;;25.33;52.28;101558.88;5092766;28;19924;-83
2023/08/09 09:26:08;;;;;;;;;;;;;;;25.31;52.29;101546.38;5101902;27;19924;-83
2023/08/09 09:28:38;;;;;;;;;;;;;;;25.35;52.22;101554.41;5105180;28;20312;-83
2023/08/09 09:31:04;;;;;;;;;;;;;;;25.38;52.19;101542.88;5089408;28;19968;-84
2023/08/09 09:33:33;;;;;;;;;;;;;;;25.33;52.37;101550.84;5099995;27;20469;-84
2023/08/09 09:35:58;;;;;;;;;;;;;;;25.41;52.30;101555.34;5117647;27;20002;-83
2023/08/09 09:38:24;;;;;;;;;;;;;;;25.40;52.31;101543.78;5118415;27;20118;-83
2023/08/09 09:40:49;;;;;;;;;;;;;;;25.39;52.13;101552.66;5093292;28;20638;-85
2023/08/09 09:43:15;;;;;;;;;;;;;;;25.38;52.42;101541.09;5112188;27;19923;-84
2023/08/09 09:45:41;;;;;;;;;;;;;;;25.35;52.57;101534.81;5112348;27;19947;-84
2023/08/09 09:48:16;;;;;;;;;;;;;;;25.32;52.43;101537.50;5101088;27;19916;-84
2023/08/09 09:50:42;;;;;;;;;;;;;;;25.29;52.39;101530.31;5108470;27;20003;-84
2023/08/09 09:53:07;;;;;;;;;;;;;;;25.37;52.32;101543.75;5110707;27;20375;-85
2023/08/09 09:55:33;;;;;;;;;;;;;;;25.41;52.01;101531.28;5107962;28;19985;-85
2023/08/09 09:57:58;;;;;;;;;;;;;;;25.43;51.88;101529.53;5092892;28;20032;-83
2023/08/09 10:00:25;;;;;;;;;;;;;;;25.34;51.81;101533.94;5082999;28;20010;-86
2023/08/09 10:02:51;;;;;;;;;;;;;;;25.37;51.89;101533.94;5116173;27;20006;-86
2023/08/09 10:05:29;;;;;;;;;;;;;;;25.47;51.79;101536.69;5078456;28;19912;-85
2023/08/09 10:07:55;;;;;;;;;;;;;;;25.41;51.89;101526.84;5099668;27;19920;-85
2023/08/09 10:10:21;;;;;;;;;;;;;;;25.43;51.71;101521.50;5112071;27;19912;-86
2023/08/09 10:12:47;;;;;;;;;;;;;;;25.47;51.76;101524.19;5124497;27;19927;-86
2023/08/09 10:15:14;;;;;;;;;;;;;;;25.47;51.66;101524.19;5096084;28;19912;-86
2023/08/09 10:17:39;;;;;;;;;;;;;;;25.46;51.70;101513.47;5105018;27;19923;-83
2023/08/09 10:20:05;;;;;;;;;;;;;;;25.41;51.60;101521.47;5079540;28;19916;-85
2023/08/09 10:22:31;;;;;;;;;;;;;;;25.44;51.09;101513.47;5122757;27;19950;-85
2023/08/09 10:25:20;;;;;;;;;;;;;;;25.41;52.04;101516.13;5094919;28;19943;-84
2023/08/09 10:27:49;;;;;;;;;;;;;;;25.42;51.61;101517.94;5106677;27;19921;-85
2023/08/09 10:30:16;;;;;;;;;;;;;;;25.41;51.68;101510.78;5121200;27;19919;-84
2023/08/09 10:32:51;;;;;;;;;;;;;;;25.47;51.83;101509.94;5107896;27;20374;-85
2023/08/09 10:35:19;;;;;;;;;;;;;;;25.49;51.64;101500.13;5093718;28;19996;-84
2023/08/09 10:37:44;;;;;;;;;;;;;;;25.46;51.53;101505.44;5110652;28;20439;-84
2023/08/09 10:40:28;;;;;;;;;;;;;;;25.44;51.76;101499.19;5123209;27;19919;-84
2023/08/09 10:43:06;;;;;;;;;;;;;;;25.48;51.92;101480.50;5116050;27;19924;-86
2023/08/09 10:45:32;;;;;;;;;;;;;;;25.52;51.77;101495.66;5095163;28;20278;-84
2023/08/09 10:48:31;;;;;;;;;;;;;;;25.51;51.88;101490.34;5112008;28;19922;-85
2023/08/09 10:51:12;;;;;;;;;;;;;;;25.54;51.82;101488.53;5119852;27;19994;-84
2023/08/09 10:53:59;;;;;;;;;;;;;;;25.48;51.83;101485.84;5114323;27;20006;-84
2023/08/09 10:56:44;;;;;;;;;;;;;;;25.52;51.95;101479.63;5111521;28;19915;-86
2023/08/09 10:59:13;;;;;;;;;;;;;;;25.53;51.88;101481.44;5094286;27;20010;-83
2023/08/09 11:01:39;;;;;;;;;;;;;;;25.51;51.88;101471.63;5083879;27;20405;-84
2023/08/09 11:04:08;;;;;;;;;;;;;;;25.54;51.88;101460.91;5099433;27;20449;-86
2023/08/09 11:06:34;;;;;;;;;;;;;;;25.55;51.78;101473.41;5118525;27;20401;-85
2023/08/09 11:09:08;;;;;;;;;;;;;;;25.52;52.03;101473.38;5108638;27;19928;-85
2023/08/09 11:11:34;;;;;;;;;;;;;;;25.51;51.92;101461.81;5105349;28;19939;-84
2023/08/09 11:14:00;;;;;;;;;;;;;;;25.50;52.22;101468.03;5089604;28;19928;-84
2023/08/09 11:16:26;;;;;;;;;;;;;;;25.50;52.14;101470.69;5091666;28;19962;-86
2023/08/09 11:19:10;;;;;;;;;;;;;;;25.49;52.04;101471.59;5090221;28;19912;-85
2023/08/09 11:21:39;;;;;;;;;;;;;;;25.55;51.99;101468.94;5095587;28;19916;-86
2023/08/09 11:24:07;;;;;;;;;;;;;;;25.56;52.03;101472.50;5099739;28;20014;-86
2023/08/09 11:26:33;;;;;;;;;;;;;;;25.52;52.02;101466.25;5088200;28;19928;-86
2023/08/09 11:29:00;;;;;;;;;;;;;;;25.52;52.26;101473.38;5106899;28;20043;-87
2023/08/09 11:31:25;;;;;;;;;;;;;;;25.52;52.18;101468.03;5104560;28;20377;-88
2023/08/09 11:33:56;;;;;;;;;;;;;;;25.51;52.07;101467.16;5091713;28;19926;-86
2023/08/09 11:36:25;;;;;;;;;;;;;;;25.55;52.01;101470.75;5099856;28;19973;-86
2023/08/09 11:38:50;;;;;;;;;;;;;;;25.60;51.65;101467.16;5073461;28;19946;-89
2023/08/09 11:41:16;;;;;;;;;;;;;;;25.63;52.04;101468.97;5090847;28;20377;-88
2023/08/09 11:43:41;;;;;;;;;;;;;;;25.67;51.71;101467.19;5107289;28;19968;-86
2023/08/09 11:46:07;;;;;;;;;;;;;;;25.66;52.05;101465.44;5073517;28;19912;-87
2023/08/09 11:48:34;;;;;;;;;;;;;;;25.70;51.72;101452.06;5090399;28;20377;-88
2023/08/09 11:51:12;;;;;;;;;;;;;;;25.71;51.81;101458.28;5074130;28;19998;-88
2023/08/09 11:53:38;;;;;;;;;;;;;;;25.69;52.05;101460.94;5090590;28;19916;-88
2023/08/09 11:56:05;;;;;;;;;;;;;;;25.72;51.74;101458.31;5094238;28;20392;-88
2023/08/09 11:58:35;;;;;;;;;;;;;;;25.73;51.70;101467.22;5105880;28;19959;-88
2023/08/09 12:01:11;;;;;;;;;;;;;;;25.74;51.87;101466.34;5101466;28;19923;-87
2023/08/09 12:03:37;;;;;;;;;;;;;;;25.76;51.75;101451.16;5094447;28;19998;-87
2023/08/09 12:06:03;;;;;;;;;;;;;;;25.77;51.81;101455.63;5094442;28;19912;-86
2023/08/09 12:08:35;;;;;;;;;;;;;;;25.78;52.09;101457.41;5101820;28;19920;-87
2023/08/09 12:11:01;;;;;;;;;;;;;;;25.79;51.72;101452.06;5095573;28;19918;-88
2023/08/09 12:13:26;;;;;;;;;;;;;;;25.77;51.72;101455.63;5110863;28;20367;-87
2023/08/09 12:15:51;;;;;;;;;;;;;;;25.81;51.61;101449.41;5104174;28;19916;-88
2023/08/09 12:18:17;;;;;;;;;;;;;;;25.80;51.79;101456.53;5098012;28;19992;-86
2023/08/09 12:20:42;;;;;;;;;;;;;;;25.85;51.68;101452.97;5098024;28;19918;-86
2023/08/09 12:23:08;;;;;;;;;;;;;;;25.84;51.90;101444.03;5113063;28;20290;-87
2023/08/09 12:25:33;;;;;;;;;;;;;;;25.84;51.86;101446.72;5097750;28;19946;-87
2023/08/09 12:27:59;;;;;;;;;;;;;;;25.81;51.92;101438.69;5079060;28;19966;-87
2023/08/09 12:30:24;;;;;;;;;;;;;;;25.83;51.89;101444.94;5114126;27;20393;-87
2023/08/09 12:32:49;;;;;;;;;;;;;;;25.86;51.78;101450.28;5061083;28;20435;-87
2023/08/09 12:35:15;;;;;;;;;;;;;;;25.84;51.74;101444.03;5094642;28;20257;-86
2023/08/09 12:37:40;;;;;;;;;;;;;;;25.83;51.60;101446.72;5110543;28;19912;-87